createdAt,value
2018-08-09T00:02:12.037Z,62.00
2018-08-09T00:07:15.703Z,62.50
2018-08-09T00:12:19.402Z,63.10
2018-08-09T00:17:23.106Z,64.50
2018-08-09T00:22:26.804Z,63.70
2018-08-09T00:27:30.482Z,63.60
2018-08-09T00:32:34.129Z,63.90
2018-08-09T00:37:37.736Z,63.90
2018-08-09T00:42:41.456Z,63.60
2018-08-09T00:47:45.246Z,63.70
2018-08-09T00:52:48.978Z,63.60
2018-08-09T00:57:52.799Z,63.80
2018-08-09T01:02:56.538Z,64.10
2018-08-09T01:08:00.923Z,64.30
2018-08-09T01:13:04.625Z,64.40
2018-08-09T01:18:09.499Z,64.50
2018-08-09T01:23:13.169Z,64.70
2018-08-09T01:28:16.830Z,65.00
2018-08-09T01:33:20.489Z,64.90
2018-08-09T01:38:24.164Z,65.00
2018-08-09T01:43:39.115Z,64.80
2018-08-09T01:48:42.842Z,64.60
2018-08-09T01:53:46.522Z,64.50
2018-08-09T01:58:50.771Z,64.40
2018-08-09T02:03:54.495Z,64.50
2018-08-09T02:09:02.330Z,64.80
2018-08-09T02:14:06.230Z,64.90
2018-08-09T02:19:09.826Z,65.70
2018-08-09T02:24:13.418Z,66.10
2018-08-09T02:29:17.107Z,66.80
2018-08-09T02:34:20.839Z,67.40
2018-08-09T02:39:24.480Z,67.10
2018-08-09T02:44:28.123Z,67.30
2018-08-09T02:49:31.841Z,66.70
2018-08-09T02:54:45.584Z,66.90
2018-08-09T02:59:49.288Z,66.80
2018-08-09T03:04:55.060Z,66.90
2018-08-09T03:09:58.786Z,66.90
2018-08-09T03:15:03.594Z,66.80
2018-08-09T03:20:07.267Z,67.90
2018-08-09T03:25:11.069Z,67.00
2018-08-09T03:30:15.703Z,67.40
2018-08-09T03:35:26.064Z,67.40
2018-08-09T03:40:29.874Z,67.90
2018-08-09T03:45:34.078Z,67.60
2018-08-09T03:50:37.829Z,67.20
2018-08-09T03:55:41.463Z,66.80
2018-08-09T04:00:45.063Z,66.60
2018-08-09T04:05:48.671Z,66.80
2018-08-09T04:10:52.383Z,66.70
2018-08-09T04:15:57.172Z,66.90
2018-08-09T04:21:00.999Z,67.00
2018-08-09T04:26:04.665Z,66.30
2018-08-09T04:31:08.403Z,67.30
2018-08-09T04:36:12.228Z,67.40
2018-08-09T04:41:15.999Z,67.10
2018-08-09T04:46:19.732Z,67.10
2018-08-09T04:51:23.335Z,67.10
2018-08-09T04:56:27.064Z,67.50
2018-08-09T05:01:30.736Z,67.00
2018-08-09T05:06:34.446Z,67.10
2018-08-09T05:11:38.240Z,66.60
2018-08-09T05:16:41.912Z,66.20
2018-08-09T05:21:45.657Z,66.10
2018-08-09T05:26:49.379Z,65.70
2018-08-09T05:31:53.125Z,66.00
2018-08-09T05:36:56.882Z,66.00
2018-08-09T05:42:00.671Z,65.40
2018-08-09T05:47:04.478Z,64.00
2018-08-09T05:52:08.163Z,64.10
2018-08-09T05:57:12.008Z,64.30
2018-08-09T06:02:16.201Z,64.50
2018-08-09T06:07:20.070Z,64.40
2018-08-09T06:12:23.766Z,65.00
2018-08-09T06:17:27.457Z,64.60
2018-08-09T06:22:31.155Z,64.30
2018-08-09T06:27:34.933Z,64.40
2018-08-09T06:32:39.070Z,64.50
2018-08-09T06:37:42.796Z,64.90
2018-08-09T06:42:46.455Z,64.40
2018-08-09T06:47:50.191Z,64.30
2018-08-09T06:52:53.908Z,64.80
2018-08-09T06:57:57.577Z,62.80
2018-08-09T07:03:01.606Z,62.70
2018-08-09T07:08:05.454Z,62.80
2018-08-09T07:13:09.186Z,62.80
2018-08-09T07:18:12.873Z,62.70
2018-08-09T07:23:16.615Z,62.10
2018-08-09T07:28:20.304Z,62.30
2018-08-09T07:33:23.919Z,60.40
2018-08-09T07:38:27.579Z,60.10
2018-08-09T07:43:31.245Z,58.80
2018-08-09T07:48:34.967Z,58.80
2018-08-09T07:53:38.695Z,59.40
2018-08-09T07:58:42.317Z,59.90
2018-08-09T08:03:46.236Z,60.10
2018-08-09T08:08:50.047Z,59.80
2018-08-09T08:13:53.680Z,59.00
2018-08-09T08:18:57.412Z,58.60
2018-08-09T08:24:01.228Z,57.20
2018-08-09T08:29:05.291Z,56.50
2018-08-09T08:34:09.115Z,54.70
2018-08-09T08:39:12.822Z,55.10
2018-08-09T08:44:16.588Z,56.40
2018-08-09T08:49:20.297Z,57.60
2018-08-09T08:54:24.003Z,58.10
2018-08-09T08:59:27.647Z,59.30
2018-08-09T09:04:31.404Z,60.80
2018-08-09T09:09:37.151Z,59.60
2018-08-09T09:14:40.972Z,57.80
2018-08-09T09:19:45.315Z,58.10
2018-08-09T09:24:49.245Z,56.60
2018-08-09T09:29:53.017Z,53.80
2018-08-09T09:35:08.051Z,53.70
2018-08-09T09:40:11.931Z,53.20
2018-08-09T09:45:15.743Z,50.20
2018-08-09T09:50:19.530Z,51.10
2018-08-09T09:55:25.372Z,51.20
2018-08-09T10:00:33.262Z,51.40
2018-08-09T10:05:37.088Z,50.50
2018-08-09T10:10:41.633Z,48.10
2018-08-09T10:15:45.431Z,43.70
2018-08-09T10:20:49.066Z,42.30
2018-08-09T10:25:52.759Z,41.80
2018-08-09T10:30:56.522Z,41.90
2018-08-09T10:36:00.312Z,40.20
2018-08-09T10:41:03.985Z,41.50
2018-08-09T10:46:12.574Z,42.50
2018-08-09T10:51:16.396Z,43.30
2018-08-09T10:56:20.111Z,43.40
2018-08-09T11:01:23.943Z,41.50
2018-08-09T11:06:27.881Z,42.00
2018-08-09T11:11:31.605Z,42.10
2018-08-09T11:16:35.318Z,41.80
2018-08-09T11:21:39.013Z,40.80
2018-08-09T11:26:42.886Z,41.30
2018-08-09T11:31:46.583Z,40.30
2018-08-09T11:36:50.273Z,37.50
2018-08-09T11:41:54.015Z,37.60
2018-08-09T11:46:57.798Z,37.80
2018-08-09T11:52:01.508Z,36.50
2018-08-09T11:57:05.419Z,36.10
2018-08-09T12:02:09.158Z,34.50
2018-08-09T12:07:12.883Z,33.40
2018-08-09T12:12:16.591Z,30.40
2018-08-09T12:17:20.304Z,30.00
2018-08-09T12:22:24.087Z,27.60
2018-08-09T12:27:28.056Z,26.90
2018-08-09T12:32:31.850Z,26.70
2018-08-09T12:37:35.582Z,27.50
2018-08-09T12:42:39.877Z,25.80
2018-08-09T12:47:43.650Z,28.10
2018-08-09T12:52:47.341Z,28.40
2018-08-09T12:57:51.100Z,28.00
2018-08-09T13:02:54.745Z,28.90
2018-08-09T13:07:58.609Z,29.40
2018-08-09T13:13:02.291Z,31.70
2018-08-09T13:18:07.533Z,33.30
2018-08-09T13:23:11.262Z,31.40
2018-08-09T13:28:14.942Z,31.90
2018-08-09T13:33:18.717Z,31.20
2018-08-09T13:38:22.413Z,31.90
2018-08-09T13:43:26.495Z,32.70
2018-08-09T13:48:30.458Z,32.00
2018-08-09T13:53:34.123Z,31.80
2018-08-09T13:58:37.766Z,31.20
2018-08-09T14:03:41.716Z,30.70
2018-08-09T14:08:45.661Z,30.60
2018-08-09T14:13:49.843Z,31.40
2018-08-09T14:18:53.688Z,34.00
2018-08-09T14:23:57.568Z,35.70
2018-08-09T14:29:01.260Z,35.50
2018-08-09T14:34:05.059Z,36.70
2018-08-09T14:39:09.913Z,36.30
2018-08-09T14:44:13.576Z,37.70
2018-08-09T14:49:17.317Z,37.70
2018-08-09T14:54:21.019Z,37.40
2018-08-09T14:59:24.724Z,37.30
2018-08-09T15:04:28.475Z,37.90
2018-08-09T15:09:32.250Z,38.40
2018-08-09T15:14:35.950Z,39.50
2018-08-09T15:19:41.643Z,40.20
2018-08-09T15:24:45.487Z,39.80
2018-08-09T15:29:49.161Z,39.50
2018-08-09T15:34:54.972Z,41.00
2018-08-09T15:39:58.708Z,41.70
2018-08-09T15:45:02.467Z,41.10
2018-08-09T15:50:07.435Z,44.40
2018-08-09T15:55:12.756Z,44.40
2018-08-09T16:00:22.980Z,45.20
2018-08-09T16:05:30.178Z,50.70
2018-08-09T16:10:34.577Z,54.90
2018-08-09T16:15:38.284Z,54.70
2018-08-09T16:20:42.138Z,55.60
2018-08-09T16:25:45.945Z,57.70
2018-08-09T16:30:49.699Z,58.30
2018-08-09T16:35:53.393Z,58.90
2018-08-09T16:40:57.217Z,59.00
2018-08-09T16:46:00.927Z,60.20
2018-08-09T16:51:06.820Z,60.40
2018-08-09T16:56:10.686Z,60.30
2018-08-09T17:01:14.406Z,60.20
2018-08-09T17:06:18.097Z,59.90
2018-08-09T17:11:22.300Z,60.40
2018-08-09T17:16:26.133Z,61.20
2018-08-09T17:21:30.015Z,62.50
2018-08-09T17:26:33.723Z,63.60
2018-08-09T17:31:37.812Z,63.50
2018-08-09T17:36:41.682Z,65.30
2018-08-09T17:41:47.126Z,64.50
2018-08-09T17:46:51.588Z,66.30
2018-08-09T17:51:55.361Z,65.20
2018-08-09T17:56:59.123Z,64.80
2018-08-09T18:02:02.987Z,63.00
2018-08-09T18:07:06.789Z,61.20
2018-08-09T18:12:14.080Z,62.30
2018-08-09T18:17:17.906Z,63.30
2018-08-09T18:22:21.838Z,64.50
2018-08-09T18:27:25.727Z,64.80
2018-08-09T18:32:29.546Z,63.40
2018-08-09T18:37:33.287Z,63.30
2018-08-09T18:42:37.260Z,64.40
2018-08-09T18:47:41.185Z,61.80
2018-08-09T18:52:45.147Z,61.10
2018-08-09T18:57:49.209Z,61.90
2018-08-09T19:02:53.242Z,61.50
2018-08-09T19:07:57.050Z,63.20
2018-08-09T19:13:00.911Z,61.50
2018-08-09T19:18:04.669Z,61.10
2018-08-09T19:23:08.657Z,60.10
2018-08-09T19:28:12.465Z,59.80
2018-08-09T19:33:17.177Z,60.60
2018-08-09T19:38:21.106Z,58.10
2018-08-09T19:43:24.963Z,60.20
2018-08-09T19:48:28.888Z,58.70
2018-08-09T19:53:32.987Z,58.70
2018-08-09T19:58:37.018Z,57.70
2018-08-09T20:03:41.235Z,59.40
2018-08-09T20:08:45.418Z,60.60
2018-08-09T20:13:49.523Z,60.00
2018-08-09T20:18:53.328Z,59.30
2018-08-09T20:23:57.185Z,60.10
2018-08-09T20:29:01.414Z,60.80
2018-08-09T20:34:05.795Z,62.30
2018-08-09T20:39:12.618Z,63.30
2018-08-09T20:44:17.160Z,64.50
2018-08-09T20:49:23.845Z,64.30
2018-08-09T20:54:34.274Z,65.10
2018-08-09T20:59:38.231Z,64.90
2018-08-09T21:04:42.141Z,65.00
2018-08-09T21:09:46.051Z,65.30
2018-08-09T21:14:49.975Z,66.70
2018-08-09T21:19:53.911Z,68.30
2018-08-09T21:24:58.112Z,68.60
2018-08-09T21:30:01.883Z,68.70
2018-08-09T21:35:07.538Z,68.00
2018-08-09T21:40:12.311Z,67.50
2018-08-09T21:45:18.591Z,67.50
2018-08-09T21:50:22.846Z,66.70
2018-08-09T21:55:27.984Z,65.10
2018-08-09T22:00:51.894Z,65.30
2018-08-09T22:06:01.087Z,64.30
2018-08-09T22:11:10.551Z,63.80
2018-08-09T22:16:19.789Z,64.40
2018-08-09T22:21:29.039Z,63.90
2018-08-09T22:26:32.958Z,63.60
2018-08-09T22:31:36.830Z,63.30
2018-08-09T22:36:40.890Z,63.40
2018-08-09T22:41:44.761Z,63.70
2018-08-09T22:46:48.715Z,64.80
2018-08-09T22:51:52.619Z,65.10
2018-08-09T22:56:56.491Z,66.30
2018-08-09T23:02:00.320Z,66.30
2018-08-09T23:07:04.264Z,66.20
2018-08-09T23:12:08.397Z,66.30
2018-08-09T23:17:12.459Z,65.90
2018-08-09T23:22:19.888Z,66.20
2018-08-09T23:27:23.604Z,66.50
2018-08-09T23:32:27.531Z,66.20
2018-08-09T23:37:31.521Z,66.40
2018-08-09T23:42:36.315Z,66.40
2018-08-09T23:47:40.986Z,65.40
2018-08-09T23:52:44.871Z,64.60
2018-08-09T23:57:48.661Z,64.20
